Time;durP1;ratioP1;P1;durP2;ratioP2;P2;SDS_P1;SDS_P2;PMS_P1;PMS_P2;Temp;Humidity;BMP_temperature;BMP_pressure;BME280_temperature;BME280_humidity;BME280_pressure;Samples;Min_cycle;Max_cycle;Signal;HPM_P1;HPM_P2
2023/05/22 00:00:25;;;;;;;4.63;3.05;;;;;;;25.64;30.82;101423.63;5013882;27;98788;-74
2023/05/22 00:02:52;;;;;;;2.78;2.53;;;;;;;25.52;30.96;101423.81;5021697;27;98191;-74
2023/05/22 00:05:20;;;;;;;5.28;2.90;;;;;;;25.62;31.06;101422.03;5016545;27;96940;-76
2023/05/22 00:07:46;;;;;;;9.73;2.78;;;;;;;25.49;30.86;101422.22;5014066;27;99300;-75
2023/05/22 00:10:13;;;;;;;6.05;3.25;;;;;;;25.46;31.02;101422.50;5019868;27;98994;-75
2023/05/22 00:12:39;;;;;;;7.40;2.75;;;;;;;25.70;30.50;101417.69;5023709;27;96853;-75
2023/05/22 00:15:06;;;;;;;5.50;2.75;;;;;;;25.46;30.99;101419.81;5013952;27;98423;-75
2023/05/22 00:17:33;;;;;;;4.97;2.83;;;;;;;25.61;30.90;101417.63;5018289;27;99377;-75
2023/05/22 00:20:07;;;;;;;5.43;3.10;;;;;;;25.52;30.68;101421.13;5014432;27;98899;-75
2023/05/22 00:22:35;;;;;;;7.25;3.22;;;;;;;25.55;30.83;101408.16;5014054;27;96845;-75
2023/05/22 00:25:01;;;;;;;3.65;2.67;;;;;;;25.53;30.84;101412.00;5020637;27;96731;-74
2023/05/22 00:27:28;;;;;;;3.03;2.63;;;;;;;25.45;30.95;101407.28;5021421;27;98946;-76
2023/05/22 00:29:54;;;;;;;4.60;2.67;;;;;;;25.49;30.69;101406.00;5016638;27;98723;-75
2023/05/22 00:32:21;;;;;;;6.18;3.25;;;;;;;25.12;31.17;101402.09;5013570;27;98670;-75
2023/05/22 00:34:47;;;;;;;3.15;2.50;;;;;;;25.23;31.00;101405.56;5017350;27;96947;-75
2023/05/22 00:37:13;;;;;;;13.15;3.13;;;;;;;25.23;31.25;101404.72;5021713;27;98597;-74
2023/05/22 00:39:41;;;;;;;4.40;2.60;;;;;;;25.01;31.15;101409.25;5012890;27;98801;-74
2023/05/22 00:42:07;;;;;;;2.85;2.55;;;;;;;25.07;31.28;101409.75;5012500;27;96829;-75
2023/05/22 00:44:34;;;;;;;6.60;2.80;;;;;;;24.93;31.59;101406.38;5014147;27;97355;-74
2023/05/22 00:47:01;;;;;;;4.18;2.80;;;;;;;24.97;31.64;101398.84;5012766;27;98278;-74
2023/05/22 00:49:27;;;;;;;6.75;2.85;;;;;;;24.95;31.77;101390.84;5019296;27;99192;-75
2023/05/22 00:51:53;;;;;;;15.40;3.22;;;;;;;24.97;31.25;101397.00;5014265;27;97203;-76
2023/05/22 00:54:20;;;;;;;3.53;2.72;;;;;;;25.06;31.33;101398.06;5017456;27;96826;-75
2023/05/22 00:56:49;;;;;;;3.33;2.92;;;;;;;24.83;31.45;101401.81;5015312;27;98258;-77
2023/05/22 00:59:16;;;;;;;5.15;3.30;;;;;;;24.88;31.35;101403.16;5018047;27;98796;-77
2023/05/22 01:01:43;;;;;;;4.55;2.72;;;;;;;24.78;31.37;101396.81;5012952;27;97084;-76
2023/05/22 01:04:11;;;;;;;6.68;2.88;;;;;;;24.97;31.17;101399.69;5016585;27;99147;-75
2023/05/22 01:06:38;;;;;;;3.75;2.80;;;;;;;24.98;31.53;101409.53;5014962;27;99335;-75
2023/05/22 01:09:05;;;;;;;4.53;2.55;;;;;;;24.93;31.30;101398.25;5016930;27;100434;-75
2023/05/22 01:11:37;;;;;;;9.50;3.22;;;;;;;24.93;31.36;101397.41;5019503;27;97935;-74
2023/05/22 01:14:11;;;;;;;2.80;2.60;;;;;;;24.99;30.94;101397.72;5017262;27;96891;-74
2023/05/22 01:16:47;;;;;;;5.50;2.90;;;;;;;24.81;31.56;101401.94;5020141;27;99161;-74
2023/05/22 01:19:38;;;;;;;5.25;2.70;;;;;;;24.71;31.35;101401.03;5012650;27;98786;-74
2023/05/22 01:22:20;;;;;;;6.95;3.05;;;;;;;24.83;31.11;101394.56;5024159;27;97294;-74
2023/05/22 01:25:10;;;;;;;3.58;2.80;;;;;;;24.76;31.51;101387.13;5017562;27;99026;-74
2023/05/22 01:28:02;;;;;;;5.05;2.75;;;;;;;24.67;31.53;101391.47;5020627;27;99218;-74
2023/05/22 01:30:47;;;;;;;6.30;2.88;;;;;;;24.62;31.53;101385.56;5014967;27;98929;-74
2023/05/22 01:33:15;;;;;;;4.80;3.15;;;;;;;24.70;31.31;101390.34;5012494;27;96871;-74
2023/05/22 01:35:47;;;;;;;6.72;3.58;;;;;;;24.62;31.31;101389.13;5012733;27;98809;-74
2023/05/22 01:38:15;;;;;;;7.53;3.58;;;;;;;24.51;31.32;101389.19;5025207;27;99218;-74
2023/05/22 01:40:42;;;;;;;4.38;3.13;;;;;;;24.40;31.57;101382.97;5018846;27;98934;-74
2023/05/22 01:43:08;;;;;;;4.90;3.00;;;;;;;24.42;31.35;101383.69;5013231;27;96829;-74
2023/05/22 01:45:34;;;;;;;7.25;2.70;;;;;;;24.55;31.56;101384.38;5017834;27;97399;-76
2023/05/22 01:48:02;;;;;;;8.63;2.78;;;;;;;24.52;31.48;101388.22;5021039;27;99130;-75
2023/05/22 01:50:28;;;;;;;5.45;2.72;;;;;;;24.51;31.06;101382.94;5013190;27;99457;-75
2023/05/22 01:53:01;;;;;;;4.70;3.22;;;;;;;24.50;31.21;101384.78;5014455;27;98199;-75
2023/05/22 01:55:34;;;;;;;6.95;2.92;;;;;;;24.53;31.36;101386.38;5014625;27;99139;-74
2023/05/22 01:58:09;;;;;;;6.45;3.35;;;;;;;24.27;31.51;101387.69;5012988;27;98976;-75
2023/05/22 02:00:40;;;;;;;5.32;2.72;;;;;;;24.28;31.71;101392.09;5020272;27;98810;-74
2023/05/22 02:03:13;;;;;;;6.25;2.90;;;;;;;24.32;31.39;101391.72;5017864;27;98823;-75
2023/05/22 02:05:40;;;;;;;5.00;3.03;;;;;;;24.20;31.65;101390.91;5014865;27;96849;-75
2023/05/22 02:08:08;;;;;;;6.28;3.00;;;;;;;24.25;31.62;101385.09;5016497;27;99049;-75
2023/05/22 02:10:36;;;;;;;4.53;2.60;;;;;;;24.18;31.73;101384.72;5021349;27;99593;-74
2023/05/22 02:13:03;;;;;;;3.17;2.65;;;;;;;24.23;31.40;101390.63;5020931;27;97603;-74
2023/05/22 02:15:29;;;;;;;3.17;2.67;;;;;;;24.12;31.66;101385.22;5020064;27;98521;-75
2023/05/22 02:18:00;;;;;;;3.70;2.78;;;;;;;24.32;31.75;101380.91;5011598;27;101000;-75
2023/05/22 02:20:29;;;;;;;3.40;2.67;;;;;;;24.34;31.53;101387.06;5011909;27;99262;-76
2023/05/22 02:22:55;;;;;;;10.20;2.88;;;;;;;24.37;31.74;101383.22;5018532;27;96777;-75
2023/05/22 02:25:21;;;;;;;9.27;2.88;;;;;;;24.39;31.38;101386.66;5014935;27;99012;-75
2023/05/22 02:27:48;;;;;;;7.13;2.72;;;;;;;24.27;31.81;101393.09;5014273;27;99082;-75
2023/05/22 02:30:15;;;;;;;9.05;2.90;;;;;;;24.25;31.93;101395.03;5014139;27;98809;-76
2023/05/22 02:32:42;;;;;;;4.60;2.90;;;;;;;24.19;31.78;101385.63;5021288;27;97003;-75
2023/05/22 02:35:09;;;;;;;12.52;3.30;;;;;;;24.07;32.12;101386.59;5018542;27;96991;-75
2023/05/22 02:37:37;;;;;;;5.00;2.70;;;;;;;24.03;32.21;101385.97;5021750;27;99409;-77
2023/05/22 02:40:05;;;;;;;3.88;2.90;;;;;;;24.08;31.99;101378.38;5022342;27;98788;-76
2023/05/22 02:42:32;;;;;;;8.40;3.10;;;;;;;24.06;32.07;101385.72;5021265;27;96949;-76
2023/05/22 02:44:58;;;;;;;8.98;3.35;;;;;;;23.91;32.46;101386.97;5021352;27;98389;-75
2023/05/22 02:47:24;;;;;;;5.63;2.90;;;;;;;23.99;32.33;101383.66;5012777;27;98912;-75
2023/05/22 02:49:51;;;;;;;6.40;3.00;;;;;;;23.94;32.45;101385.88;5019847;27;99068;-75
2023/05/22 02:52:17;;;;;;;4.57;2.83;;;;;;;23.98;32.28;101382.78;5017481;27;98912;-75
2023/05/22 02:54:45;;;;;;;11.98;3.25;;;;;;;23.95;32.12;101379.50;5013379;27;97274;-72
2023/05/22 02:57:11;;;;;;;7.78;3.45;;;;;;;24.02;32.28;101378.88;5013432;27;99035;-75
2023/05/22 02:59:37;;;;;;;6.05;3.08;;;;;;;24.02;32.11;101378.88;5018285;27;98839;-75
2023/05/22 03:02:05;;;;;;;8.52;3.53;;;;;;;23.87;32.58;101369.31;5014645;27;97243;-75
2023/05/22 03:04:31;;;;;;;4.80;3.38;;;;;;;23.87;32.39;101369.31;5014829;27;98586;-78
2023/05/22 03:06:58;;;;;;;7.50;3.55;;;;;;;23.90;32.63;101366.34;5022661;27;98931;-77
2023/05/22 03:09:24;;;;;;;5.88;3.00;;;;;;;23.96;32.33;101365.84;5019368;27;100974;-76
2023/05/22 03:11:52;;;;;;;7.50;3.20;;;;;;;23.86;32.54;101366.75;5024189;27;96876;-75
2023/05/22 03:14:18;;;;;;;8.48;3.33;;;;;;;23.65;32.97;101359.41;5022916;27;98569;-76
2023/05/22 03:16:45;;;;;;;5.80;2.95;;;;;;;23.66;32.92;101357.56;5022702;27;99446;-75
2023/05/22 03:19:12;;;;;;;8.75;2.67;;;;;;;23.54;33.17;101362.13;5015709;27;98952;-77
2023/05/22 03:21:40;;;;;;;10.73;3.45;;;;;;;23.60;33.04;101361.63;5018628;27;97012;-77
2023/05/22 03:24:07;;;;;;;5.45;3.10;;;;;;;23.74;32.73;101355.13;5026458;27;98532;-76
2023/05/22 03:26:34;;;;;;;4.70;3.25;;;;;;;23.80;33.04;101357.31;5028543;27;99704;-76
2023/05/22 03:29:02;;;;;;;8.52;3.17;;;;;;;23.66;33.09;101355.72;5018787;27;99714;-76
2023/05/22 03:31:30;;;;;;;4.15;2.90;;;;;;;23.71;32.89;101349.94;5024951;27;96854;-75
2023/05/22 03:33:56;;;;;;;5.32;3.35;;;;;;;23.74;33.08;101355.13;5018560;27;97028;-75
2023/05/22 03:36:24;;;;;;;5.97;3.35;;;;;;;23.66;33.08;101347.63;5012378;27;99107;-76
2023/05/22 03:38:50;;;;;;;8.65;3.50;;;;;;;23.73;33.15;101358.78;5020982;27;98842;-75
2023/05/22 03:41:17;;;;;;;9.25;3.53;;;;;;;23.66;33.38;101354.88;5020597;27;96854;-76
2023/05/22 03:43:43;;;;;;;7.00;3.10;;;;;;;23.72;33.18;101354.38;5019292;27;96893;-76
2023/05/22 03:46:11;;;;;;;4.60;3.30;;;;;;;23.93;32.97;101363.44;5016176;27;102261;-74
2023/05/22 03:48:38;;;;;;;9.25;3.20;;;;;;;23.89;33.07;101353.00;5018409;27;98949;-76
2023/05/22 03:51:05;;;;;;;5.25;3.38;;;;;;;23.89;33.04;101351.19;5023270;27;98856;-75
2023/05/22 03:53:31;;;;;;;5.03;3.13;;;;;;;23.75;33.49;101348.75;5019880;27;96958;-75
2023/05/22 03:55:58;;;;;;;5.70;2.88;;;;;;;23.90;33.16;101362.78;5021372;28;99897;-75
2023/05/22 03:58:24;;;;;;;5.88;3.50;;;;;;;23.83;33.43;101352.50;5021217;27;99575;-77
2023/05/22 04:00:51;;;;;;;7.93;3.03;;;;;;;23.85;33.26;101352.38;5014432;27;96839;-76
2023/05/22 04:03:19;;;;;;;8.38;3.05;;;;;;;23.83;33.58;101352.50;5016399;27;96988;-75
2023/05/22 04:05:45;;;;;;;6.60;3.22;;;;;;;23.83;33.20;101348.94;5019558;27;99656;-74
2023/05/22 04:08:12;;;;;;;6.88;3.33;;;;;;;23.96;33.17;101351.53;5015218;27;99240;-75
2023/05/22 04:10:38;;;;;;;5.25;3.30;;;;;;;24.06;33.08;101350.63;5017693;27;97924;-75
2023/05/22 04:13:05;;;;;;;7.57;3.55;;;;;;;23.96;33.08;101352.34;5013581;27;96993;-77
2023/05/22 04:15:32;;;;;;;8.27;3.08;;;;;;;23.99;32.97;101356.66;5016862;27;101178;-76
2023/05/22 04:17:59;;;;;;;7.78;3.50;;;;;;;24.08;33.08;101351.38;5023159;27;97811;-75
2023/05/22 04:20:27;;;;;;;8.85;3.53;;;;;;;23.92;33.36;101350.91;5020537;27;96878;-74
2023/05/22 04:22:54;;;;;;;14.52;3.78;;;;;;;23.83;33.63;101347.09;5011204;27;99974;-76
2023/05/22 04:25:20;;;;;;;7.45;3.05;;;;;;;24.08;33.04;101354.06;5021399;27;98928;-75
2023/05/22 04:27:46;;;;;;;5.95;3.70;;;;;;;24.25;33.11;101346.44;5017388;27;98841;-76
2023/05/22 04:30:15;;;;;;;8.13;3.47;;;;;;;24.22;32.98;101345.69;5018092;27;96817;-75
2023/05/22 04:32:42;;;;;;;7.47;3.75;;;;;;;24.07;33.14;101357.75;5022285;27;97980;-75
2023/05/22 04:35:11;;;;;;;11.70;4.22;;;;;;;24.27;32.88;101356.13;5019122;27;98955;-76
2023/05/22 04:37:39;;;;;;;6.10;3.25;;;;;;;24.39;33.09;101355.09;5010474;27;99223;-76
2023/05/22 04:40:08;;;;;;;14.98;3.83;;;;;;;24.46;32.69;101355.44;5012960;27;97298;-75
2023/05/22 04:42:36;;;;;;;13.50;4.00;;;;;;;24.52;32.64;101355.78;5016502;27;99139;-75
2023/05/22 04:45:02;;;;;;;14.30;3.67;;;;;;;24.67;32.44;101363.59;5022184;27;98939;-75
2023/05/22 04:47:30;;;;;;;8.20;3.83;;;;;;;24.62;32.85;101355.84;5015333;27;99457;-74
2023/05/22 04:49:57;;;;;;;5.75;3.75;;;;;;;24.67;32.53;101356.34;5025386;27;96842;-75
2023/05/22 04:52:23;;;;;;;7.10;3.17;;;;;;;24.63;32.62;101361.13;5017433;27;97937;-75
2023/05/22 04:54:51;;;;;;;10.68;3.45;;;;;;;24.77;32.25;101364.50;5018243;27;101312;-76
2023/05/22 04:57:20;;;;;;;8.73;3.90;;;;;;;24.79;32.72;101368.81;5021185;27;99405;-77
2023/05/22 04:59:47;;;;;;;12.23;3.45;;;;;;;24.69;32.84;101361.59;5010231;27;99192;-77
2023/05/22 05:02:13;;;;;;;7.68;4.05;;;;;;;24.59;32.69;101358.84;5008888;27;97005;-76
2023/05/22 05:04:40;;;;;;;9.98;3.65;;;;;;;24.71;32.56;101354.22;5017187;27;99047;-75
2023/05/22 05:07:07;;;;;;;7.78;3.67;;;;;;;24.82;32.42;101351.44;5019907;27;98877;-75
2023/05/22 05:09:34;;;;;;;8.18;3.75;;;;;;;24.87;32.62;101355.50;5021144;27;96940;-76
2023/05/22 05:12:02;;;;;;;13.35;3.58;;;;;;;24.88;32.48;101351.78;5023570;27;97010;-76
2023/05/22 05:14:28;;;;;;;13.07;3.83;;;;;;;24.80;32.55;101348.91;5010559;27;98945;-74
2023/05/22 05:16:55;;;;;;;13.35;3.85;;;;;;;24.90;32.48;101352.56;5010205;27;99286;-75
2023/05/22 05:19:22;;;;;;;18.42;4.45;;;;;;;24.95;32.65;101341.34;5010767;27;97653;-75
2023/05/22 05:21:49;;;;;;;12.27;4.38;;;;;;;24.80;33.10;101348.91;5011909;27;97204;-76
2023/05/22 05:24:16;;;;;;;8.27;3.60;;;;;;;24.76;33.11;101352.84;5021802;27;99050;-76
2023/05/22 05:26:42;;;;;;;4.88;3.70;;;;;;;24.80;32.94;101358.84;5018380;27;97716;-75
2023/05/22 05:29:11;;;;;;;9.98;3.60;;;;;;;24.64;33.29;101345.78;5019881;27;97189;-73
2023/05/22 05:31:37;;;;;;;6.38;4.07;;;;;;;24.48;33.50;101353.50;5015692;27;97314;-73
2023/05/22 05:34:04;;;;;;;16.38;4.30;;;;;;;24.68;33.53;101366.13;5014594;27;97798;-73
2023/05/22 05:36:31;;;;;;;7.07;3.85;;;;;;;24.80;33.21;101365.13;5022648;27;98862;-75
2023/05/22 05:38:57;;;;;;;7.07;3.53;;;;;;;24.56;33.67;101362.63;5020853;27;97215;-74
2023/05/22 05:41:25;;;;;;;7.88;3.80;;;;;;;24.93;32.88;101365.81;5013441;27;97072;-74
2023/05/22 05:43:52;;;;;;;11.20;3.95;;;;;;;24.98;33.06;101365.41;5023104;27;98908;-75
2023/05/22 05:46:19;;;;;;;11.80;4.13;;;;;;;24.99;32.99;101359.88;5022358;27;98266;-74
2023/05/22 05:48:46;;;;;;;11.70;3.88;;;;;;;25.20;32.61;101361.72;5011942;27;97374;-73
2023/05/22 05:51:12;;;;;;;9.05;3.95;;;;;;;25.17;32.97;101361.97;5013391;27;98254;-72
2023/05/22 05:53:39;;;;;;;10.65;3.92;;;;;;;25.33;32.68;101360.50;5018899;27;99196;-73
2023/05/22 05:56:07;;;;;;;12.68;4.60;;;;;;;25.32;32.66;101363.34;5027260;27;98902;-74
2023/05/22 05:58:33;;;;;;;15.68;4.43;;;;;;;25.59;32.43;101365.50;5019838;27;98042;-73
2023/05/22 06:01:01;;;;;;;12.25;3.88;;;;;;;25.61;32.09;101364.34;5014587;27;97244;-73
2023/05/22 06:03:29;;;;;;;9.60;3.70;;;;;;;25.52;32.56;101367.88;5024174;27;99609;-74
2023/05/22 06:05:58;;;;;;;9.50;3.70;;;;;;;25.24;33.00;101368.56;5016809;27;99151;-75
2023/05/22 06:08:24;;;;;;;8.77;3.50;;;;;;;25.56;33.00;101354.91;5037358;27;98268;-73
2023/05/22 06:10:51;;;;;;;9.82;3.80;;;;;;;26.04;32.16;101357.81;5019855;27;96991;-73
2023/05/22 06:13:17;;;;;;;14.80;3.50;;;;;;;26.29;31.77;101359.16;5027034;27;99042;-73
2023/05/22 06:15:44;;;;;;;13.27;3.63;;;;;;;26.10;31.75;101365.38;5028102;27;97435;-73
2023/05/22 06:18:10;;;;;;;13.27;4.43;;;;;;;25.97;32.08;101359.34;5018794;27;98271;-74
2023/05/22 06:20:38;;;;;;;9.90;3.67;;;;;;;26.14;31.88;101359.53;5027435;27;97784;-75
2023/05/22 06:23:05;;;;;;;13.27;4.40;;;;;;;26.13;31.89;101355.09;5026911;27;98910;-75
2023/05/22 06:25:31;;;;;;;8.95;3.63;;;;;;;26.25;31.58;101363.16;5028339;27;99527;-75
2023/05/22 06:27:58;;;;;;;13.43;4.15;;;;;;;26.45;31.47;101354.88;5025190;27;97412;-73
2023/05/22 06:30:25;;;;;;;16.80;3.78;;;;;;;26.56;31.65;101352.03;5024504;27;97058;-75
2023/05/22 06:32:51;;;;;;;11.57;4.55;;;;;;;26.53;31.48;101354.16;5017847;27;99036;-73
2023/05/22 06:35:18;;;;;;;10.02;3.97;;;;;;;26.52;31.42;101347.03;5029430;27;99184;-75
2023/05/22 06:37:45;;;;;;;9.13;3.70;;;;;;;26.71;31.51;101346.19;5034201;27;96871;-76
2023/05/22 06:40:12;;;;;;;8.52;4.28;;;;;;;27.13;30.95;101349.41;5027803;27;98045;-75
2023/05/22 06:42:39;;;;;;;9.98;3.88;;;;;;;27.20;30.56;101354.13;5022535;27;99248;-76
2023/05/22 06:45:07;;;;;;;19.85;4.63;;;;;;;27.05;30.73;101354.72;5029973;27;99048;-75
2023/05/22 06:47:33;;;;;;;15.30;5.57;;;;;;;26.91;31.04;101347.91;5034551;27;97880;-75
2023/05/22 06:49:59;;;;;;;18.65;4.35;;;;;;;27.00;30.94;101347.03;5031524;27;97000;-75
2023/05/22 06:52:26;;;;;;;17.90;4.28;;;;;;;27.11;30.70;101352.28;5034501;27;98246;-75
2023/05/22 06:54:54;;;;;;;15.02;3.70;;;;;;;27.35;30.45;101355.34;5024908;27;98291;-76
2023/05/22 06:57:20;;;;;;;19.42;4.57;;;;;;;27.35;30.56;101343.66;5031689;27;96845;-75
2023/05/22 06:59:46;;;;;;;7.05;4.10;;;;;;;27.42;30.72;101352.91;5026193;27;96656;-75
2023/05/22 07:02:13;;;;;;;15.30;4.88;;;;;;;27.67;30.43;101340.53;5029648;27;97839;-76
2023/05/22 07:04:39;;;;;;;8.57;4.13;;;;;;;27.73;30.36;101345.38;5033568;27;97668;-77
2023/05/22 07:07:06;;;;;;;9.40;4.38;;;;;;;27.71;30.41;101344.66;5033741;27;97139;-75
2023/05/22 07:09:33;;;;;;;11.48;4.50;;;;;;;27.90;30.33;101343.69;5030583;27;97148;-77
2023/05/22 07:12:01;;;;;;;13.35;4.90;;;;;;;27.96;30.41;101345.81;5032952;27;97738;-75
2023/05/22 07:14:27;;;;;;;15.18;4.32;;;;;;;28.11;30.01;101339.69;5033628;27;98865;-75
2023/05/22 07:16:54;;;;;;;13.18;4.65;;;;;;;27.87;30.16;101347.56;5034438;27;96708;-75
2023/05/22 07:19:20;;;;;;;10.40;4.38;;;;;;;28.04;30.16;101345.88;5024583;27;96804;-76
2023/05/22 07:21:47;;;;;;;13.20;5.13;;;;;;;28.03;30.24;101353.19;5026451;27;99143;-76
2023/05/22 07:24:13;;;;;;;16.52;4.25;;;;;;;27.83;30.46;101342.63;5029818;27;97779;-76
2023/05/22 07:26:45;;;;;;;12.63;4.50;;;;;;;27.80;30.25;101346.47;5024889;27;97136;-75
2023/05/22 07:29:13;;;;;;;12.85;4.38;;;;;;;27.69;31.00;101349.41;5028059;27;96844;-76
2023/05/22 07:31:40;;;;;;;11.57;4.43;;;;;;;27.88;30.95;101348.44;5030023;27;98161;-76
2023/05/22 07:34:08;;;;;;;18.95;4.55;;;;;;;28.04;30.47;101348.59;5026915;27;98915;-76
2023/05/22 07:36:34;;;;;;;14.77;5.25;;;;;;;28.16;30.31;101344.69;5033981;27;97053;-76
2023/05/22 07:39:01;;;;;;;12.20;4.80;;;;;;;28.19;30.29;101348.97;5023893;27;96827;-76
2023/05/22 07:41:27;;;;;;;11.50;4.15;;;;;;;28.46;29.95;101343.47;5025461;27;98940;-76
2023/05/22 07:43:54;;;;;;;15.63;4.32;;;;;;;28.31;30.14;101339.59;5029320;27;99009;-75
2023/05/22 07:46:24;;;;;;;13.77;4.60;;;;;;;28.07;30.36;101349.19;5029840;27;96793;-77
2023/05/22 07:48:51;;;;;;;17.27;4.72;;;;;;;28.39;30.23;101342.38;5027856;27;97310;-77
2023/05/22 07:51:18;;;;;;;15.43;4.25;;;;;;;28.30;30.15;101343.31;5023912;27;99090;-77
2023/05/22 07:53:44;;;;;;;8.57;3.97;;;;;;;28.72;29.96;101338.97;5027848;27;99084;-77
2023/05/22 07:56:11;;;;;;;12.85;4.32;;;;;;;28.56;29.72;101327.94;5030983;27;97347;-77
2023/05/22 07:58:38;;;;;;;11.80;4.20;;;;;;;29.05;29.32;101328.34;5023918;27;97008;-77
2023/05/22 08:01:05;;;;;;;12.60;3.60;;;;;;;29.22;29.09;101336.44;5021586;27;101235;-76
2023/05/22 08:03:33;;;;;;;18.05;4.32;;;;;;;29.38;28.51;101335.72;5012192;27;101620;-77
2023/05/22 08:05:59;;;;;;;15.02;4.55;;;;;;;29.17;28.90;101333.34;5015884;27;99173;-77
2023/05/22 08:08:26;;;;;;;10.95;4.22;;;;;;;29.15;29.07;101334.50;5014716;27;96942;-77
2023/05/22 08:10:52;;;;;;;7.15;4.05;;;;;;;29.32;28.81;101337.19;5021962;27;98966;-76
2023/05/22 08:13:19;;;;;;;10.95;3.85;;;;;;;29.52;28.65;101337.00;5026473;27;100457;-76
2023/05/22 08:15:45;;;;;;;13.25;3.78;;;;;;;29.56;28.31;101332.91;5020828;27;96801;-75
2023/05/22 08:18:12;;;;;;;6.40;3.60;;;;;;;29.78;28.45;101334.19;5015897;27;96855;-76
2023/05/22 08:20:40;;;;;;;17.52;3.20;;;;;;;29.81;28.03;101320.25;5023545;27;98916;-76
2023/05/22 08:23:06;;;;;;;23.50;3.65;;;;;;;29.70;27.91;101324.97;5020088;27;97515;-76
2023/05/22 08:25:33;;;;;;;14.05;3.50;;;;;;;30.01;27.72;101319.81;5030380;27;96895;-77
2023/05/22 08:27:59;;;;;;;10.52;3.88;;;;;;;29.79;28.35;101323.16;5020287;27;96863;-77
2023/05/22 08:30:28;;;;;;;20.30;4.15;;;;;;;29.52;28.36;101332.41;5026616;27;98504;-76
2023/05/22 08:32:54;;;;;;;10.70;3.20;;;;;;;29.56;28.15;101319.28;5015834;27;97518;-76
2023/05/22 08:35:21;;;;;;;12.95;3.40;;;;;;;29.59;28.20;101317.13;5024755;27;97089;-76
2023/05/22 08:37:48;;;;;;;12.75;3.88;;;;;;;29.10;28.66;101315.97;5020053;27;97241;-77
2023/05/22 08:40:16;;;;;;;6.97;3.10;;;;;;;28.72;29.30;101325.34;5021236;27;98343;-77
2023/05/22 08:42:42;;;;;;;9.13;3.50;;;;;;;28.49;29.72;101314.09;5018258;27;99286;-77
2023/05/22 08:45:09;;;;;;;7.18;3.58;;;;;;;28.97;29.43;101309.25;5023631;27;97676;-76
2023/05/22 08:47:37;;;;;;;10.40;4.03;;;;;;;29.12;29.46;101310.38;5026442;27;96844;-76
2023/05/22 08:50:05;;;;;;;12.43;4.05;;;;;;;29.69;28.31;101300.63;5024728;27;100819;-76
2023/05/22 08:52:35;;;;;;;6.65;3.10;;;;;;;30.03;27.84;101297.88;5023739;27;99553;-77
2023/05/22 08:55:04;;;;;;;14.70;2.80;;;;;;;30.37;27.48;101306.78;5029930;27;98121;-76
2023/05/22 08:57:31;;;;;;;11.25;3.40;;;;;;;30.62;27.33;101296.75;5025144;27;97243;-76
2023/05/22 08:59:57;;;;;;;12.80;3.22;;;;;;;30.58;27.36;101300.00;5016476;27;102326;-75
2023/05/22 09:02:25;;;;;;;7.95;3.25;;;;;;;30.46;26.77;101294.84;5020858;27;98882;-76
2023/05/22 09:04:52;;;;;;;6.95;3.40;;;;;;;30.33;27.24;101293.63;5012648;27;97726;-76
2023/05/22 09:07:20;;;;;;;10.23;3.50;;;;;;;30.20;27.34;101280.50;5022531;27;96854;-76
2023/05/22 09:09:47;;;;;;;12.38;3.63;;;;;;;30.43;26.69;101286.16;5026929;27;99385;-77
2023/05/22 09:12:15;;;;;;;11.23;3.78;;;;;;;30.81;26.81;101281.91;5015384;27;98810;-74
2023/05/22 09:14:42;;;;;;;4.15;3.42;;;;;;;30.84;26.54;101284.28;5028273;27;96765;-77
2023/05/22 09:17:10;;;;;;;12.85;3.20;;;;;;;30.85;26.71;101284.09;5019926;27;97036;-74
2023/05/22 09:19:37;;;;;;;8.73;3.55;;;;;;;31.19;26.24;101285.75;5018338;27;97840;-73
2023/05/22 09:22:03;;;;;;;15.68;3.88;;;;;;;31.00;26.34;101276.06;5014046;27;100532;-75
2023/05/22 09:24:31;;;;;;;9.43;3.28;;;;;;;30.83;26.41;101277.97;5018209;27;96791;-75
2023/05/22 09:27:02;;;;;;;11.93;3.42;;;;;;;31.06;26.21;101269.94;5011165;27;97326;-76
2023/05/22 09:29:30;;;;;;;8.23;3.28;;;;;;;31.24;26.38;101276.00;5024284;27;99055;-75
2023/05/22 09:31:58;;;;;;;7.15;3.28;;;;;;;31.05;26.13;101272.84;5015282;27;97519;-76
2023/05/22 09:34:28;;;;;;;6.05;3.45;;;;;;;31.11;26.08;101278.47;5021916;27;97731;-76
2023/05/22 09:37:01;;;;;;;13.57;3.38;;;;;;;30.85;26.35;101266.91;5013588;27;96839;-76
2023/05/22 09:39:38;;;;;;;16.83;3.70;;;;;;;30.54;26.97;101265.91;5017390;27;101479;-75
2023/05/22 09:42:05;;;;;;;9.30;3.17;;;;;;;30.22;27.52;101270.28;5020054;27;97701;-76
2023/05/22 09:44:33;;;;;;;4.68;3.05;;;;;;;30.26;27.38;101274.38;5022202;27;97124;-76
2023/05/22 09:46:59;;;;;;;7.07;3.20;;;;;;;30.67;26.92;101264.34;5016492;27;98178;-76
2023/05/22 09:49:26;;;;;;;7.03;3.17;;;;;;;30.48;27.34;101273.72;5020241;27;99129;-76
2023/05/22 09:51:55;;;;;;;15.15;3.63;;;;;;;30.52;27.30;101265.22;5023094;27;101477;-75
2023/05/22 09:54:25;;;;;;;8.63;2.97;;;;;;;30.52;26.92;101268.81;5014968;27;96877;-76
2023/05/22 09:56:57;;;;;;;12.75;3.63;;;;;;;30.67;26.93;101264.34;5020331;27;97454;-76
2023/05/22 09:59:28;;;;;;;9.90;3.40;;;;;;;30.77;27.09;101258.72;5014266;27;99903;-77
2023/05/22 10:01:57;;;;;;;4.78;3.17;;;;;;;31.15;26.72;101257.97;5013619;27;98069;-72
2023/05/22 10:04:26;;;;;;;11.85;3.63;;;;;;;31.31;25.81;101256.22;5024544;27;97342;-73
2023/05/22 10:06:56;;;;;;;8.27;3.03;;;;;;;30.55;26.37;101252.09;5015979;27;97075;-72
2023/05/22 10:09:29;;;;;;;12.40;3.58;;;;;;;30.95;26.60;101262.09;5027312;27;98849;-72
2023/05/22 10:11:58;;;;;;;7.88;3.17;;;;;;;30.72;26.47;101253.75;5022608;27;100140;-72
2023/05/22 10:14:25;;;;;;;12.05;3.15;;;;;;;30.71;26.43;101260.28;5024239;27;96909;-73
2023/05/22 10:16:55;;;;;;;6.93;3.30;;;;;;;30.93;26.20;101255.94;5021043;27;97234;-72
2023/05/22 10:19:26;;;;;;;7.28;3.10;;;;;;;30.85;26.18;101256.81;5028175;27;97125;-74
2023/05/22 10:21:56;;;;;;;6.20;3.22;;;;;;;31.10;26.17;101254.94;5023883;27;98998;-74
2023/05/22 10:24:24;;;;;;;8.43;3.28;;;;;;;30.65;25.99;101249.19;5027932;27;96909;-73
2023/05/22 10:26:53;;;;;;;6.10;2.92;;;;;;;30.55;26.18;101243.91;5019242;27;96901;-73
2023/05/22 10:29:27;;;;;;;6.32;3.53;;;;;;;30.76;26.43;101240.66;5026468;27;97731;-73
2023/05/22 10:32:00;;;;;;;8.35;2.60;;;;;;;30.76;26.28;101243.38;5019081;27;98406;-72
2023/05/22 10:34:32;;;;;;;5.60;3.22;;;;;;;30.86;26.35;101239.41;5017783;27;99425;-73
2023/05/22 10:37:28;;;;;;;7.78;3.03;;;;;;;31.03;25.67;101236.66;5020556;27;96898;-73
2023/05/22 10:40:01;;;;;;;8.65;2.85;;;;;;;30.94;25.59;101233.09;5020856;27;101486;-73
2023/05/22 10:42:30;;;;;;;3.85;2.80;;;;;;;30.96;25.67;101228.31;5028089;27;99078;-74
2023/05/22 10:44:59;;;;;;;5.45;2.83;;;;;;;31.08;25.89;101234.28;5024275;27;97083;-74
2023/05/22 10:47:26;;;;;;;3.88;2.72;;;;;;;31.08;25.40;101223.38;5022381;27;96963;-74
2023/05/22 10:50:04;;;;;;;8.68;3.10;;;;;;;30.97;25.59;101231.91;5021963;27;101704;-73
2023/05/22 10:52:30;;;;;;;11.05;3.70;;;;;;;30.61;25.54;101217.81;5018162;27;98803;-74
2023/05/22 10:55:00;;;;;;;8.23;2.97;;;;;;;30.55;25.67;101211.19;5013412;27;96891;-72
2023/05/22 10:57:32;;;;;;;7.35;3.50;;;;;;;30.68;25.84;101210.66;5018504;27;97875;-74
2023/05/22 11:00:08;;;;;;;9.90;3.30;;;;;;;30.81;25.81;101202.78;5018589;27;99290;-73
2023/05/22 11:02:38;;;;;;;;;;;;;;;31.08;25.52;101207.84;5016935;27;102231;-74
2023/05/22 11:05:34;;;;;;;8.85;3.10;;;;;;;31.09;24.93;101206.81;5017015;27;96864;-73
2023/05/22 11:08:39;;;;;;;8.70;2.83;;;;;;;31.31;24.88;101204.34;5016346;27;97036;-74
2023/05/22 11:11:15;;;;;;;11.20;2.80;;;;;;;31.25;25.57;101204.00;5011523;27;99098;-74
2023/05/22 11:13:42;;;;;;;8.45;2.88;;;;;;;31.09;24.66;101204.09;5024598;27;99128;-73
2023/05/22 11:16:10;;;;;;;9.38;2.90;;;;;;;31.19;24.48;101204.72;5019578;27;97436;-73
2023/05/22 11:18:36;;;;;;;12.77;3.30;;;;;;;31.34;24.42;101195.78;5018427;27;96844;-73
2023/05/22 11:21:06;;;;;;;5.93;2.33;;;;;;;31.42;24.30;101193.88;5016310;27;99297;-73
2023/05/22 11:23:37;;;;;;;5.13;2.80;;;;;;;31.43;23.71;101194.72;5023196;27;99236;-73
2023/05/22 11:26:21;;;;;;;7.57;2.47;;;;;;;31.30;23.55;101195.31;5015434;27;100238;-73